Time;durP1;ratioP1;P1;durP2;ratioP2;P2;SDS_P1;SDS_P2;PMS_P1;PMS_P2;Temp;Humidity;BMP_temperature;BMP_pressure;BME280_temperature;BME280_humidity;BME280_pressure;Samples;Min_cycle;Max_cycle;Signal;HPM_P1;HPM_P2
2022/05/10 00:00:33;;;;;;;3.62;3.25;;;;;;;18.03;60.11;100547.66;4358329;32;33612;-88
2022/05/10 00:03:02;;;;;;;5.00;3.10;;;;;;;18.02;60.26;100551.28;4355693;32;33083;-88
2022/05/10 00:05:34;;;;;;;4.45;2.83;;;;;;;18.10;60.12;100549.00;4355531;32;33961;-89
2022/05/10 00:08:06;;;;;;;4.20;3.37;;;;;;;18.14;59.67;100556.72;4344482;32;32853;-90
2022/05/10 00:10:35;;;;;;;;;;;;;;;18.33;59.10;100555.56;4355771;32;32921;-89
2022/05/10 00:13:04;;;;;;;4.50;3.30;;;;;;;17.90;60.50;100548.44;4365687;32;34156;-89
2022/05/10 00:15:32;;;;;;;3.28;2.92;;;;;;;18.19;59.47;100550.25;4367781;32;32572;-89
2022/05/10 00:18:02;;;;;;;4.40;3.25;;;;;;;17.70;61.30;100545.22;4333273;32;33428;-91
2022/05/10 00:20:47;;;;;;;3.50;3.20;;;;;;;17.77;60.97;100542.13;4333896;33;33062;-91
2022/05/10 00:23:37;;;;;;;3.90;3.05;;;;;;;17.80;60.91;100552.66;4331984;33;32749;-91
2022/05/10 00:26:25;;;;;;;3.05;2.80;;;;;;;17.84;60.86;100547.94;4334830;33;31891;-91
2022/05/10 00:29:10;;;;;;;4.60;3.12;;;;;;;17.94;60.60;100549.09;4344281;33;33522;-90
2022/05/10 00:31:59;;;;;;;3.70;3.17;;;;;;;18.01;60.53;100545.09;4332559;33;122285;-91
2022/05/10 00:35:07;;;;;;;3.25;2.95;;;;;;;17.95;60.75;100534.81;4343305;32;34638;-88
2022/05/10 00:37:35;;;;;;;3.00;2.70;;;;;;;17.91;60.81;100533.28;4361470;32;32043;-87
2022/05/10 00:40:04;;;;;;;4.35;3.15;;;;;;;18.00;60.51;100532.69;4336585;32;32956;-88
2022/05/10 00:42:41;;;;;;;3.30;3.00;;;;;;;17.72;61.46;100532.66;4348565;32;34017;-88
2022/05/10 00:45:15;;;;;;;3.83;3.12;;;;;;;17.82;61.20;100525.81;4361353;32;33773;-88
2022/05/10 00:47:50;;;;;;;4.40;3.10;;;;;;;17.88;60.97;100522.75;4361392;32;32671;-87
2022/05/10 00:50:31;;;;;;;3.75;2.50;;;;;;;17.91;60.96;100518.09;4348024;32;34647;-85
2022/05/10 00:53:17;;;;;;;4.25;2.85;;;;;;;17.95;60.91;100518.75;4348206;32;33829;-87
2022/05/10 00:55:59;;;;;;;3.37;3.05;;;;;;;18.07;60.41;100514.44;4348238;32;32984;-89
2022/05/10 00:58:51;;;;;;;3.15;2.85;;;;;;;18.06;60.37;100516.25;4336500;32;32909;-86
2022/05/10 01:01:24;;;;;;;3.85;3.08;;;;;;;17.97;60.35;100519.50;4336928;32;33154;-89
2022/05/10 01:03:56;;;;;;;3.67;3.00;;;;;;;17.92;60.40;100514.47;4361645;32;32840;-89
2022/05/10 01:06:26;;;;;;;4.32;3.30;;;;;;;17.96;60.07;100504.44;4336117;32;32273;-88
2022/05/10 01:09:01;;;;;;;3.65;2.83;;;;;;;17.76;60.72;100502.19;4360935;32;32652;-88
2022/05/10 01:12:02;;;;;;;3.62;3.10;;;;;;;17.73;60.76;100508.56;4348866;32;32921;-88
2022/05/10 01:14:54;;;;;;;3.30;3.00;;;;;;;17.76;60.50;100504.84;4357338;32;33128;-88
2022/05/10 01:17:22;;;;;;;3.92;3.10;;;;;;;17.61;60.92;100494.13;4335476;32;33824;-87
2022/05/10 01:19:51;;;;;;;3.62;2.67;;;;;;;17.94;59.76;100503.66;4360723;32;32964;-87
2022/05/10 01:22:37;;;;;;;4.72;3.20;;;;;;;17.65;60.56;100498.28;4359069;32;33986;-87
2022/05/10 01:25:35;;;;;;;2.65;2.45;;;;;;;17.59;60.75;100492.50;4347848;32;33801;-86
2022/05/10 01:28:15;;;;;;;3.30;3.00;;;;;;;17.60;60.75;100497.72;4360126;32;32791;-88
2022/05/10 01:30:44;;;;;;;3.08;2.78;;;;;;;17.41;61.27;100497.13;4336039;32;31671;-88
2022/05/10 01:33:31;;;;;;;4.50;2.72;;;;;;;17.21;61.94;100495.69;4331760;33;33108;-89
2022/05/10 01:36:08;;;;;;;3.53;3.22;;;;;;;17.12;62.43;100497.09;4339556;33;33390;-87
2022/05/10 01:38:54;;;;;;;5.15;2.90;;;;;;;17.43;61.32;100489.91;4340182;32;33955;-87
2022/05/10 01:41:36;;;;;;;3.75;3.20;;;;;;;16.97;62.74;100497.16;4331457;33;32421;-86
2022/05/10 01:44:16;;;;;;;3.03;2.73;;;;;;;17.27;61.82;100489.13;4339238;33;32375;-87
2022/05/10 01:46:46;;;;;;;3.30;3.00;;;;;;;17.17;62.18;100490.63;4344720;33;33774;-87
2022/05/10 01:49:17;;;;;;;3.70;3.30;;;;;;;17.24;61.98;100492.00;4344628;33;34580;-87
2022/05/10 01:51:51;;;;;;;6.43;3.45;;;;;;;17.24;62.06;100486.66;4345291;33;33120;-86
2022/05/10 01:54:41;;;;;;;5.03;2.30;;;;;;;17.31;61.87;100485.31;4344909;33;32471;-87
2022/05/10 01:57:13;;;;;;;3.17;2.83;;;;;;;17.35;61.97;100487.69;4326299;33;33127;-87
2022/05/10 01:59:47;;;;;;;3.67;3.33;;;;;;;17.37;61.91;100476.91;4339301;32;33869;-87
2022/05/10 02:02:18;;;;;;;3.62;3.33;;;;;;;17.37;61.72;100476.91;4343674;33;34104;-87
2022/05/10 02:04:48;;;;;;;4.30;3.47;;;;;;;17.26;62.36;100487.41;4343492;33;34002;-87
2022/05/10 02:07:19;;;;;;;3.20;2.87;;;;;;;17.23;62.47;100485.75;4341075;32;33612;-86
2022/05/10 02:09:56;;;;;;;4.32;2.90;;;;;;;17.33;61.97;100472.75;4332061;33;33031;-87
2022/05/10 02:12:28;;;;;;;4.85;3.37;;;;;;;17.27;62.13;100473.09;4344060;33;32744;-87
2022/05/10 02:15:03;;;;;;;3.47;2.97;;;;;;;17.03;62.63;100473.63;4329123;33;33285;-87
2022/05/10 02:17:40;;;;;;;3.90;3.12;;;;;;;17.23;61.78;100483.09;4344165;33;34139;-87
2022/05/10 02:20:19;;;;;;;3.25;2.95;;;;;;;17.21;61.79;100485.00;4345843;33;32910;-87
2022/05/10 02:22:59;;;;;;;4.05;2.97;;;;;;;17.26;61.52;100482.06;4340511;33;30693;-87
2022/05/10 02:25:32;;;;;;;5.95;2.70;;;;;;;17.05;61.92;100479.75;4338259;33;33881;-87
2022/05/10 02:28:16;;;;;;;4.68;3.00;;;;;;;17.06;61.71;100475.25;4338332;33;33835;-87
2022/05/10 02:30:51;;;;;;;3.70;2.90;;;;;;;17.13;61.33;100476.59;4337676;33;34205;-87
2022/05/10 02:33:20;;;;;;;3.97;2.92;;;;;;;16.81;62.09;100470.53;4347402;32;32467;-87
2022/05/10 02:35:57;;;;;;;2.92;2.60;;;;;;;17.08;60.91;100473.34;4352180;32;33464;-89
2022/05/10 02:38:37;;;;;;;4.47;3.30;;;;;;;16.48;62.74;100476.84;4347461;32;33311;-87
2022/05/10 02:41:16;;;;;;;2.87;2.55;;;;;;;16.62;62.36;100474.25;4340640;32;34417;-88
2022/05/10 02:43:48;;;;;;;2.62;2.42;;;;;;;16.64;62.13;100464.31;4343397;32;32187;-87
2022/05/10 02:46:17;;;;;;;3.22;2.92;;;;;;;16.76;61.70;100467.25;4340951;32;33667;-87
2022/05/10 02:48:47;;;;;;;3.10;2.80;;;;;;;16.64;61.62;100463.47;4336343;32;33338;-88
2022/05/10 02:51:17;;;;;;;4.28;2.83;;;;;;;16.64;61.43;100471.47;4334281;32;33077;-88
2022/05/10 02:53:48;;;;;;;3.25;2.70;;;;;;;16.48;61.50;100468.00;4351805;32;32327;-88
2022/05/10 02:56:19;;;;;;;2.70;2.47;;;;;;;16.45;61.81;100474.34;4340624;32;33095;-88
2022/05/10 02:58:53;;;;;;;3.00;2.70;;;;;;;16.56;61.39;100473.72;4342366;32;33958;-87
2022/05/10 03:01:51;;;;;;;2.90;2.60;;;;;;;16.22;62.14;100472.13;4340555;32;33280;-87
2022/05/10 03:04:22;;;;;;;3.72;3.42;;;;;;;16.31;61.70;100474.25;4329286;32;33092;-87
2022/05/10 03:06:49;;;;;;;2.80;2.60;;;;;;;16.35;61.44;100475.81;4352458;32;33185;-87
2022/05/10 03:09:17;;;;;;;2.80;2.40;;;;;;;16.29;61.59;100473.50;4354638;32;34842;-89
2022/05/10 03:11:45;;;;;;;3.90;2.50;;;;;;;16.28;61.55;100469.09;4334616;32;33169;-88
2022/05/10 03:14:13;;;;;;;3.65;2.83;;;;;;;16.34;61.27;100469.62;4351579;32;32477;-88
2022/05/10 03:16:41;;;;;;;3.78;2.95;;;;;;;16.27;61.31;100470.06;4346596;32;33039;-88
2022/05/10 03:19:11;;;;;;;3.78;2.60;;;;;;;16.35;61.05;100473.16;4351919;32;32893;-87
2022/05/10 03:21:40;;;;;;;2.83;2.53;;;;;;;16.20;61.32;100468.69;4350474;32;33108;-89
2022/05/10 03:24:09;;;;;;;2.80;2.60;;;;;;;16.16;61.40;100477.81;4341633;32;32570;-88
2022/05/10 03:26:38;;;;;;;3.75;2.80;;;;;;;15.65;62.98;100474.37;4341545;32;33838;-89
2022/05/10 03:29:08;;;;;;;3.40;2.60;;;;;;;15.91;62.14;100473.84;4341541;32;34352;-87
2022/05/10 03:31:37;;;;;;;4.20;2.60;;;;;;;15.95;62.04;100470.06;4340542;32;33708;-87
2022/05/10 03:36:55;;;;;;;3.00;2.50;;;;;;;15.88;62.18;100474.84;4328928;33;32836;-87
2022/05/10 03:39:23;;;;;;;5.12;3.37;;;;;;;15.50;63.38;100474.25;4333987;33;34036;-88
2022/05/10 03:41:52;;;;;;;3.75;3.10;;;;;;;15.67;63.05;100477.84;4343791;33;32506;-88
2022/05/10 03:44:21;;;;;;;5.65;2.87;;;;;;;15.44;63.58;100479.91;4346823;33;33494;-88
2022/05/10 03:46:50;;;;;;;2.92;2.53;;;;;;;15.40;63.73;100472.16;4340223;33;33690;-87
2022/05/10 03:49:19;;;;;;;5.78;2.95;;;;;;;15.66;62.91;100473.44;4335120;33;33330;-88
2022/05/10 03:51:47;;;;;;;5.68;3.35;;;;;;;15.76;62.56;100474.66;4335028;33;33936;-88
2022/05/10 03:54:17;;;;;;;3.90;3.03;;;;;;;15.62;63.20;100475.41;4335181;33;33035;-89
2022/05/10 03:56:46;;;;;;;4.65;3.30;;;;;;;15.82;62.66;100480.53;4340098;33;33783;-88
2022/05/10 03:59:14;;;;;;;4.10;3.62;;;;;;;15.38;64.36;100472.22;4347394;33;34759;-88
2022/05/10 04:01:44;;;;;;;5.22;3.53;;;;;;;15.79;63.33;100475.34;4340010;33;33184;-88
2022/05/10 04:04:18;;;;;;;4.07;3.17;;;;;;;16.05;62.84;100473.09;4339802;33;32296;-87
2022/05/10 04:06:52;;;;;;;3.90;2.87;;;;;;;16.25;62.40;100466.63;4344533;33;33130;-87
2022/05/10 04:09:24;;;;;;;5.05;3.58;;;;;;;15.95;63.13;100470.06;4346386;33;35566;-88
2022/05/10 04:11:59;;;;;;;5.35;3.22;;;;;;;16.49;61.70;100469.69;4335171;33;33931;-87
2022/05/10 04:14:28;;;;;;;3.53;3.22;;;;;;;16.27;62.60;100470.06;4339520;33;32866;-88
2022/05/10 04:16:56;;;;;;;3.92;3.20;;;;;;;16.30;62.61;100472.56;4338376;33;32956;-88
2022/05/10 04:19:24;;;;;;;2.97;2.50;;;;;;;16.34;62.02;100471.44;4321572;33;32944;-87
2022/05/10 04:21:53;;;;;;;3.80;3.03;;;;;;;16.50;61.88;100474.94;4319564;33;32046;-87
2022/05/10 04:24:22;;;;;;;4.57;3.28;;;;;;;16.57;61.84;100484.31;4311300;33;32554;-87
2022/05/10 04:26:51;;;;;;;5.80;3.37;;;;;;;16.87;61.33;100476.34;4319289;33;32655;-87
2022/05/10 04:29:20;;;;;;;4.32;3.90;;;;;;;17.02;61.36;100481.72;4341991;33;33239;-87
2022/05/10 04:31:49;;;;;;;8.75;3.75;;;;;;;17.10;61.09;100487.47;4331739;33;33021;-86
2022/05/10 04:34:20;;;;;;;8.05;3.28;;;;;;;17.02;61.10;100485.25;4346309;32;32013;-87
2022/05/10 04:36:51;;;;;;;4.47;3.42;;;;;;;17.11;61.49;100484.72;4334502;32;32685;-87
2022/05/10 04:41:24;;;;;;;4.53;2.80;;;;;;;17.43;60.50;100484.56;4345116;32;34328;-87
2022/05/10 04:42:17;;;;;;;9.25;3.72;;;;;;;17.85;59.97;100483.75;4356345;32;33431;-87
2022/05/10 04:44:45;;;;;;;3.60;3.25;;;;;;;17.61;61.03;100487.91;4333763;32;32589;-86
2022/05/10 04:47:13;;;;;;;4.22;2.97;;;;;;;17.96;60.80;100493.75;4356806;32;32526;-87
2022/05/10 04:49:42;;;;;;;7.68;3.22;;;;;;;18.12;60.38;100489.13;4344883;32;32919;-87
2022/05/10 04:52:11;;;;;;;7.65;3.80;;;;;;;17.99;60.02;100492.69;4344275;32;30632;-87
2022/05/10 04:54:40;;;;;;;6.50;3.37;;;;;;;18.03;59.09;100495.06;4356781;32;32576;-88
2022/05/10 04:57:13;;;;;;;3.55;3.25;;;;;;;18.03;58.85;100495.06;4338755;32;33912;-88
2022/05/10 04:59:44;;;;;;;6.47;3.90;;;;;;;18.15;58.14;100491.63;4357688;32;32855;-87
2022/05/10 05:02:15;;;;;;;7.97;3.62;;;;;;;18.25;57.56;100493.72;4358925;32;32509;-87
2022/05/10 05:04:44;;;;;;;5.68;3.03;;;;;;;18.45;57.00;100495.94;4345778;32;32172;-88
2022/05/10 05:07:13;;;;;;;6.05;2.97;;;;;;;18.48;56.37;100495.75;4358679;32;33731;-88
2022/05/10 05:09:42;;;;;;;3.95;2.92;;;;;;;18.60;54.47;100500.28;4345830;32;34768;-88
2022/05/10 05:12:11;;;;;;;4.75;3.65;;;;;;;19.04;53.78;100492.97;4349084;32;34282;-88
2022/05/10 05:14:42;;;;;;;4.22;3.12;;;;;;;19.41;54.56;100508.19;4357719;32;33339;-88
2022/05/10 05:17:13;;;;;;;6.95;2.92;;;;;;;19.54;53.96;100497.50;4343353;32;34422;-88
2022/05/10 05:19:42;;;;;;;4.93;3.40;;;;;;;19.49;54.02;100498.78;4345380;32;33517;-88
2022/05/10 05:22:13;;;;;;;5.37;2.60;;;;;;;19.42;52.76;100504.56;4350418;32;33123;-88
2022/05/10 05:24:43;;;;;;;3.83;2.70;;;;;;;19.45;53.11;100503.50;4330721;32;33550;-88
2022/05/10 05:27:11;;;;;;;4.28;3.00;;;;;;;19.38;52.15;100508.44;4345768;32;35189;-88
2022/05/10 05:29:40;;;;;;;8.55;3.00;;;;;;;19.79;50.84;100502.00;4356945;32;34072;-90
2022/05/10 05:32:33;;;;;;;6.55;2.78;;;;;;;19.73;50.96;100501.59;4352578;32;34644;-89
2022/05/10 05:35:03;;;;;;;3.58;3.28;;;;;;;19.67;50.64;100509.09;4358687;32;32309;-89
2022/05/10 05:37:33;;;;;;;6.18;3.20;;;;;;;19.65;52.66;100513.72;4358660;32;32727;-88
2022/05/10 05:40:23;;;;;;;5.93;2.72;;;;;;;19.73;51.42;100512.31;4346419;32;33039;-89
2022/05/10 05:42:55;;;;;;;6.07;3.25;;;;;;;19.86;51.06;100515.84;4358216;32;32868;-89
2022/05/10 05:45:27;;;;;;;3.17;2.87;;;;;;;20.30;49.73;100509.09;4345839;32;32848;-90
2022/05/10 05:48:01;;;;;;;7.25;3.03;;;;;;;20.44;48.81;100517.00;4358186;32;33300;-89
2022/05/10 05:50:30;;;;;;;5.60;3.55;;;;;;;20.27;49.11;100512.00;4358834;32;31486;-89
2022/05/10 05:52:58;;;;;;;5.90;2.97;;;;;;;20.27;50.24;100514.69;4338840;32;32953;-89
2022/05/10 05:55:28;;;;;;;3.22;2.97;;;;;;;20.09;51.36;100520.44;4335830;32;34863;-90
2022/05/10 05:57:59;;;;;;;5.72;3.33;;;;;;;19.97;51.67;100512.41;4347252;32;33676;-90
2022/05/10 06:00:29;;;;;;;5.43;2.87;;;;;;;20.17;50.69;100511.81;4338886;32;33711;-90
2022/05/10 06:03:03;;;;;;;3.75;2.65;;;;;;;20.45;49.33;100507.97;4338815;32;33166;-89
2022/05/10 06:05:35;;;;;;;6.03;2.67;;;;;;;20.78;48.30;100515.37;4343290;32;32141;-90
2022/05/10 06:08:08;;;;;;;6.55;2.67;;;;;;;20.67;47.63;100510.81;4345541;32;34338;-89
2022/05/10 06:10:39;;;;;;;10.43;3.42;;;;;;;20.58;48.39;100510.66;4345176;32;33059;-89
2022/05/10 06:13:07;;;;;;;8.43;3.17;;;;;;;21.11;46.19;100513.81;4353182;32;34561;-90
2022/05/10 06:15:36;;;;;;;7.47;2.67;;;;;;;21.07;45.03;100509.62;4357009;32;33055;-90
2022/05/10 06:18:07;;;;;;;14.13;4.50;;;;;;;20.85;47.75;100515.78;4344942;32;33817;-90
2022/05/10 06:20:38;;;;;;;4.90;2.85;;;;;;;21.06;47.56;100516.84;4356130;32;33264;-90
2022/05/10 06:23:11;;;;;;;10.77;3.60;;;;;;;21.10;48.06;100518.31;4345317;32;33139;-89
2022/05/10 06:25:42;;;;;;;6.60;3.20;;;;;;;21.32;46.27;100511.34;4346350;32;32668;-90
2022/05/10 06:28:13;;;;;;;4.22;2.60;;;;;;;21.18;47.83;100520.44;4347509;32;33680;-89
2022/05/10 06:30:43;;;;;;;9.70;3.00;;;;;;;20.97;46.35;100515.69;4356348;32;32934;-90
2022/05/10 06:33:12;;;;;;;8.40;2.87;;;;;;;21.55;46.17;100513.06;4336157;32;32534;-89
2022/05/10 06:35:40;;;;;;;6.62;2.50;;;;;;;21.41;45.77;100526.72;4356393;32;34152;-90
2022/05/10 06:38:16;;;;;;;2.28;2.08;;;;;;;21.70;42.38;100509.22;4356501;32;32250;-89
2022/05/10 06:40:50;;;;;;;7.45;2.72;;;;;;;21.51;43.53;100517.00;4356249;32;33700;-90
2022/05/10 06:43:22;;;;;;;5.18;2.95;;;;;;;21.96;42.38;100511.66;4321463;32;34487;-90
2022/05/10 06:46:10;;;;;;;;;;;;;;;21.66;42.99;100514.94;4343088;32;32210;-88
2022/05/10 06:48:39;;;;;;;3.25;1.95;;;;;;;22.05;41.83;100518.97;4343844;32;32708;-89
2022/05/10 06:51:09;;;;;;;9.18;2.37;;;;;;;21.73;42.46;100514.31;4338669;32;32953;-89
2022/05/10 06:53:37;;;;;;;4.00;2.40;;;;;;;22.36;41.70;100508.44;4354696;32;32681;-89
2022/05/10 06:56:10;;;;;;;4.40;2.22;;;;;;;22.54;40.59;100514.16;4355737;32;32468;-89
2022/05/10 06:58:38;;;;;;;2.75;2.33;;;;;;;22.58;40.42;100516.47;4339238;32;34189;-88
2022/05/10 07:01:13;;;;;;;2.25;1.90;;;;;;;22.37;40.38;100511.03;4355436;32;33254;-90
2022/05/10 07:03:45;;;;;;;5.15;1.65;;;;;;;22.50;39.60;100510.88;4341014;32;32393;-89
2022/05/10 07:06:16;;;;;;;2.22;1.95;;;;;;;22.78;38.10;100513.97;4342994;32;32471;-90
2022/05/10 07:08:44;;;;;;;3.55;1.92;;;;;;;22.43;38.77;100515.91;4344826;32;33161;-90
2022/05/10 07:11:13;;;;;;;2.45;1.67;;;;;;;22.84;38.96;100510.78;4356878;32;33368;-90
2022/05/10 07:13:41;;;;;;;2.65;2.00;;;;;;;22.93;36.52;100512.72;4344032;32;34595;-90
2022/05/10 07:16:18;;;;;;;2.53;1.92;;;;;;;23.30;35.32;100505.06;4346722;32;33038;-90
2022/05/10 07:18:51;;;;;;;3.78;1.77;;;;;;;22.62;39.66;100511.69;4359042;32;32843;-91
2022/05/10 07:21:23;;;;;;;3.60;2.10;;;;;;;23.03;36.46;100502.91;4340050;32;32785;-90
2022/05/10 07:23:55;;;;;;;2.92;2.42;;;;;;;23.40;36.33;100510.50;4348269;32;32782;-86
2022/05/10 07:26:23;;;;;;;4.80;2.08;;;;;;;23.40;37.54;100502.41;4360911;32;33738;-86
2022/05/10 07:28:51;;;;;;;5.72;2.47;;;;;;;23.28;37.49;100509.72;4345198;32;33145;-86
2022/05/10 07:31:19;;;;;;;11.70;2.75;;;;;;;23.58;36.40;100505.37;4347786;32;34386;-85
2022/05/10 07:33:48;;;;;;;4.85;2.42;;;;;;;23.82;36.46;100505.94;4360881;32;35144;-85
2022/05/10 07:36:23;;;;;;;5.07;2.58;;;;;;;23.46;37.41;100510.84;4353749;32;32455;-86
2022/05/10 07:38:52;;;;;;;3.22;2.62;;;;;;;23.82;35.55;100505.94;4353400;32;33456;-86
2022/05/10 07:41:24;;;;;;;4.20;2.75;;;;;;;23.67;38.15;100513.53;4347477;32;33730;-86
2022/05/10 07:43:56;;;;;;;2.65;1.85;;;;;;;23.67;39.50;100505.47;4349752;32;34818;-86
2022/05/10 07:46:24;;;;;;;3.47;2.53;;;;;;;24.01;36.95;100505.19;4348631;32;33948;-86
2022/05/10 07:48:52;;;;;;;3.47;2.22;;;;;;;24.31;37.44;100506.13;4352208;32;33578;-86
2022/05/10 07:51:21;;;;;;;4.68;2.75;;;;;;;24.11;35.91;100511.47;4354134;32;34365;-86
2022/05/10 07:53:50;;;;;;;5.35;2.53;;;;;;;23.91;36.88;100504.28;4355096;32;35988;-86
2022/05/10 07:56:18;;;;;;;4.62;2.60;;;;;;;23.87;39.31;100505.53;4353870;32;33711;-86
2022/05/10 07:58:55;;;;;;;2.50;2.30;;;;;;;23.63;37.26;100511.22;4348788;32;33852;-85
2022/05/10 08:01:24;;;;;;;4.60;2.33;;;;;;;23.24;36.47;100505.59;4355705;32;33533;-86
2022/05/10 08:03:54;;;;;;;2.15;1.90;;;;;;;23.65;37.49;100510.16;4356796;32;32699;-86
2022/05/10 08:06:22;;;;;;;6.05;2.70;;;;;;;24.10;35.52;100507.06;4342487;32;32491;-86
2022/05/10 08:08:51;;;;;;;2.85;2.62;;;;;;;24.66;35.25;100501.13;4355114;32;33479;-86
2022/05/10 08:11:22;;;;;;;3.65;2.35;;;;;;;24.59;35.36;100499.97;4355496;32;34485;-86
2022/05/10 08:13:50;;;;;;;2.55;2.35;;;;;;;24.16;35.47;100492.16;4361266;32;33864;-86
2022/05/10 08:16:21;;;;;;;2.70;2.40;;;;;;;24.49;36.69;100499.94;4355333;32;33715;-86
2022/05/10 08:18:50;;;;;;;2.30;2.10;;;;;;;24.53;36.18;100489.72;4359769;32;33428;-85
2022/05/10 08:21:18;;;;;;;5.53;2.42;;;;;;;24.31;34.83;100489.94;4360551;32;32998;-86
2022/05/10 08:23:49;;;;;;;4.80;2.92;;;;;;;24.15;35.56;100490.47;4358743;32;33817;-89
2022/05/10 08:26:19;;;;;;;2.70;2.40;;;;;;;23.97;37.50;100499.19;4361872;32;32199;-92
2022/05/10 08:28:52;;;;;;;4.50;2.25;;;;;;;24.34;36.26;100495.06;4353866;32;32848;-91
2022/05/10 08:31:29;;;;;;;4.35;2.30;;;;;;;24.88;33.25;100488.34;4361696;32;32903;-91
2022/05/10 08:36:33;;;;;;;3.35;2.20;;;;;;;24.38;34.65;100486.56;4336444;32;32415;-87
2022/05/10 08:39:01;;;;;;;3.40;2.62;;;;;;;24.23;36.30;100491.47;4353271;32;34611;-87
2022/05/10 08:41:53;;;;;;;7.82;3.20;;;;;;;24.56;34.41;100484.06;4353930;32;32928;-88
2022/05/10 08:44:25;;;;;;;5.07;2.37;;;;;;;24.66;35.40;100489.47;4360730;32;34157;-87
2022/05/10 08:47:03;;;;;;;3.72;2.47;;;;;;;24.80;34.18;100480.09;4339942;32;33773;-87
2022/05/10 08:50:04;;;;;;;2.70;2.30;;;;;;;25.33;34.25;100479.62;4353787;32;33471;-87
2022/05/10 08:52:54;;;;;;;5.80;2.92;;;;;;;25.57;35.09;100477.28;4346403;32;32754;-87
2022/05/10 08:55:31;;;;;;;3.85;2.20;;;;;;;25.16;33.98;100474.00;4348329;32;33162;-87
2022/05/10 08:58:26;;;;;;;3.45;2.17;;;;;;;25.29;33.73;100479.91;4347812;32;33774;-87
2022/05/10 09:01:23;;;;;;;7.45;2.53;;;;;;;25.60;32.76;100478.88;4359905;32;33909;-86
2022/05/10 09:04:13;;;;;;;6.22;2.67;;;;;;;25.73;32.92;100474.84;4354692;32;33432;-89
2022/05/10 09:06:58;;;;;;;5.32;2.55;;;;;;;25.41;33.76;100475.22;4361528;32;32801;-87
2022/05/10 09:09:29;;;;;;;4.75;2.05;;;;;;;25.40;33.60;100475.34;4350431;32;31825;-88
2022/05/10 09:12:21;;;;;;;;;;;;;;;25.52;33.16;100460.66;4355801;32;32515;-88
2022/05/10 09:15:01;;;;;;;3.62;2.60;;;;;;;25.26;31.92;100471.28;4359977;32;33883;-88
2022/05/10 09:17:39;;;;;;;3.90;2.28;;;;;;;25.42;33.10;100471.50;4360107;32;32799;-89
2022/05/10 09:20:10;;;;;;;5.22;2.87;;;;;;;24.89;33.28;100473.84;4324163;33;33414;-89
2022/05/10 09:23:32;;;;;;;2.25;2.05;;;;;;;25.19;33.11;100467.44;4333780;33;33062;-88
2022/05/10 09:26:03;;;;;;;7.90;2.10;;;;;;;26.09;35.05;100452.47;4347595;32;33806;-88
2022/05/10 09:28:37;;;;;;;2.42;2.20;;;;;;;25.97;32.75;100458.09;4355402;32;32452;-88
2022/05/10 09:35:18;;;;;;;4.70;2.50;;;;;;;26.22;31.98;100464.66;4358431;32;32631;-93
2022/05/10 09:38:06;;;;;;;3.47;2.50;;;;;;;25.84;31.28;100457.59;4310134;33;33903;-94
2022/05/10 09:40:41;;;;;;;2.58;2.35;;;;;;;25.84;33.14;100459.44;4338040;33;32442;-89
2022/05/10 09:43:25;;;;;;;4.07;2.30;;;;;;;26.09;29.58;100458.75;4325758;33;32270;-91
2022/05/10 09:46:29;;;;;;;6.57;3.00;;;;;;;26.08;30.44;100456.19;4336028;33;34776;-87
2022/05/10 09:48:58;;;;;;;3.12;2.30;;;;;;;26.08;31.87;100459.75;4314278;33;33898;-87
2022/05/10 09:54:21;;;;;;;3.62;3.12;;;;;;;25.04;34.13;100467.00;4331914;33;32976;-87
2022/05/10 09:56:59;;;;;;;7.70;4.50;;;;;;;25.45;34.50;100464.97;4319090;33;32305;-87
2022/05/10 09:59:30;;;;;;;7.65;4.12;;;;;;;25.95;32.01;100451.13;4318506;33;33761;-87
2022/05/10 10:02:01;;;;;;;6.37;3.42;;;;;;;25.00;34.03;100461.03;4319201;33;32438;-87
2022/05/10 10:04:34;;;;;;;4.28;3.62;;;;;;;24.89;34.94;100457.63;4334473;33;33544;-88
2022/05/10 10:07:13;;;;;;;4.45;3.45;;;;;;;25.16;34.05;100449.69;4333865;33;33001;-88
2022/05/10 10:09:49;;;;;;;5.30;3.22;;;;;;;24.37;35.56;100454.34;4334438;33;34606;-87
2022/05/10 10:12:38;;;;;;;5.10;3.95;;;;;;;24.59;38.69;100451.34;4328008;32;33376;-87
2022/05/10 10:15:51;;;;;;;7.72;3.22;;;;;;;25.14;34.39;100440.84;4324789;33;32300;-88
2022/05/10 10:19:01;;;;;;;11.18;4.20;;;;;;;25.56;36.96;100429.63;4275268;33;33335;-87
2022/05/10 10:21:41;;;;;;;6.22;3.90;;;;;;;25.37;35.78;100427.00;4243265;33;33774;-87
2022/05/10 10:24:17;;;;;;;3.28;2.15;;;;;;;26.11;34.18;100424.28;4269869;33;34272;-88
2022/05/10 10:26:47;;;;;;;5.75;3.75;;;;;;;26.43;35.98;100417.50;4313972;33;32220;-88
2022/05/10 10:29:37;;;;;;;7.00;3.50;;;;;;;26.39;33.96;100416.06;4334493;33;33701;-87
2022/05/10 10:32:35;;;;;;;8.18;3.10;;;;;;;26.30;34.75;100421.44;4319593;33;32290;-87
2022/05/10 10:35:24;;;;;;;3.83;3.08;;;;;;;27.10;34.34;100413.34;4315316;33;33435;-87
2022/05/10 10:37:59;;;;;;;4.20;3.05;;;;;;;27.89;32.33;100406.03;4334261;33;33414;-87
2022/05/10 10:40:32;;;;;;;3.53;2.62;;;;;;;27.40;33.04;100409.34;4330560;33;32806;-87
2022/05/10 10:43:24;;;;;;;6.15;2.20;;;;;;;27.30;31.51;100401.31;4331287;33;34655;-86
2022/05/10 10:46:13;;;;;;;7.18;2.95;;;;;;;28.16;30.62;100388.63;4328981;33;33082;-87
2022/05/10 10:48:53;;;;;;;3.60;2.47;;;;;;;28.01;30.10;100385.69;4306902;33;32387;-85
2022/05/10 10:51:33;;;;;;;7.85;3.22;;;;;;;28.47;28.69;100376.13;4329063;33;33276;-86
2022/05/10 10:54:20;;;;;;;7.05;3.83;;;;;;;28.60;29.32;100367.47;4331835;33;35662;-86
2022/05/10 10:57:16;;;;;;;3.15;2.85;;;;;;;27.87;30.26;100378.19;4318731;33;32556;-87
2022/05/10 11:00:06;;;;;;;6.20;2.90;;;;;;;28.14;30.14;100369.78;4332519;33;33063;-86
2022/05/10 11:03:00;;;;;;;6.35;3.12;;;;;;;28.83;28.72;100368.50;4324050;33;33930;-87
2022/05/10 11:06:01;;;;;;;7.12;3.53;;;;;;;27.94;30.92;100371.94;4331293;33;33003;-88
2022/05/10 11:08:44;;;;;;;9.03;3.10;;;;;;;28.14;29.88;100361.63;4330456;33;33900;-86
2022/05/10 11:11:23;;;;;;;4.57;3.92;;;;;;;27.37;31.91;100363.53;4331393;33;33086;-86
2022/05/10 11:17:16;;;;;;;4.30;2.60;;;;;;;28.56;29.60;100349.81;4329531;33;32859;-87
2022/05/10 11:20:13;;;;;;;7.90;2.70;;;;;;;28.16;29.28;100354.19;4329806;33;32012;-87
2022/05/10 11:22:59;;;;;;;7.45;2.42;;;;;;;27.20;30.89;100357.16;4311636;33;32295;-89
2022/05/10 11:25:54;;;;;;;5.62;1.98;;;;;;;27.67;30.19;100370.28;4331936;33;33301;-91
2022/05/10 11:28:45;;;;;;;10.02;1.80;;;;;;;26.95;30.75;100382.41;4332570;33;32732;-90
2022/05/10 11:31:37;;;;;;;1.30;1.20;;;;;;;26.37;31.94;100372.91;4309437;33;31713;-92
2022/05/10 11:34:55;;;;;;;2.53;1.08;;;;;;;25.84;30.30;100372.87;4330497;33;33768;-88
2022/05/10 11:37:32;;;;;;;1.55;1.20;;;;;;;25.17;31.18;100373.00;4319332;33;33716;-87
2022/05/10 11:40:19;;;;;;;2.45;1.25;;;;;;;24.62;33.58;100370.06;4339231;33;32943;-87
2022/05/10 11:43:19;;;;;;;4.68;1.17;;;;;;;24.45;34.47;100368.97;4330939;33;33920;-88
2022/05/10 11:46:03;;;;;;;5.93;1.70;;;;;;;24.33;35.82;100369.22;4308118;33;32832;-87
2022/05/10 11:51:43;;;;;;;2.85;1.45;;;;;;;22.94;45.09;100377.09;4338149;33;35593;-86
2022/05/10 11:54:38;;;;;;;6.05;2.42;;;;;;;22.23;47.34;100395.63;4327244;33;33815;-86
2022/05/10 11:57:13;;;;;;;6.78;2.30;;;;;;;21.77;50.49;100393.13;4339627;33;32711;-87
2022/05/10 11:59:42;;;;;;;;;;;;;;;21.94;52.15;100387.25;4325220;33;32674;-86
2022/05/10 12:02:29;;;;;;;5.93;2.80;;;;;;;21.93;52.79;100386.41;4335387;33;34786;-87
2022/05/10 12:05:14;;;;;;;5.25;2.45;;;;;;;21.40;54.53;100386.19;4332015;33;32476;-87
2022/05/10 12:07:46;;;;;;;4.72;3.20;;;;;;;21.20;55.65;100382.34;4339237;33;33432;-87
2022/05/10 12:10:40;;;;;;;5.53;3.78;;;;;;;21.28;56.15;100379.09;4329979;33;32612;-87
2022/05/10 12:21:19;;;;;;;2.80;2.50;;;;;;;20.95;57.44;100371.84;4314259;33;32560;-87
2022/05/10 12:22:17;;;;;;;10.90;3.40;;;;;;;21.48;57.98;100353.34;4327772;33;33524;-87
2022/05/10 12:24:47;;;;;;;7.60;3.35;;;;;;;21.47;58.54;100357.00;4323897;33;33780;-87
2022/05/10 12:27:17;;;;;;;5.97;2.62;;;;;;;21.52;59.19;100354.81;4316824;33;33810;-87
2022/05/10 12:29:45;;;;;;;5.30;3.28;;;;;;;21.58;60.81;100346.25;4328188;33;34055;-87
2022/05/10 12:32:20;;;;;;;3.05;2.75;;;;;;;21.61;60.27;100342.47;4337138;33;34260;-87